createdAt,value
2023-12-01T00:00:54.497Z,1.88
2023-12-01T00:03:46.439Z,1.86
2023-12-01T00:06:18.493Z,1.85
2023-12-01T00:08:50.299Z,1.82
2023-12-01T00:11:22.093Z,1.81
2023-12-01T00:13:53.893Z,1.80
2023-12-01T00:16:25.713Z,1.80
2023-12-01T00:18:57.686Z,1.88
2023-12-01T00:21:29.781Z,1.95
2023-12-01T00:24:01.707Z,2.01
2023-12-01T00:26:33.565Z,2.07
2023-12-01T00:29:05.737Z,2.13
2023-12-01T00:31:37.516Z,2.16
2023-12-01T00:34:09.479Z,2.19
2023-12-01T00:36:41.364Z,2.22
2023-12-01T00:39:13.635Z,2.25
2023-12-01T00:41:45.736Z,2.26
2023-12-01T00:44:17.819Z,2.28
2023-12-01T00:46:49.663Z,2.28
2023-12-01T00:49:21.525Z,2.25
2023-12-01T00:51:53.397Z,2.23
2023-12-01T00:54:25.613Z,2.21
2023-12-01T00:56:57.611Z,2.19
2023-12-01T00:59:29.389Z,2.20
2023-12-01T01:02:01.203Z,2.18
2023-12-01T01:04:33.176Z,2.16
2023-12-01T01:07:05.298Z,2.16
2023-12-01T01:09:37.198Z,2.16
2023-12-01T01:12:09.994Z,2.13
2023-12-01T01:14:41.820Z,2.06
2023-12-01T01:17:13.667Z,2.04
2023-12-01T01:20:03.713Z,2.02
2023-12-01T01:22:35.611Z,1.97
2023-12-01T01:25:09.262Z,1.95
2023-12-01T01:27:41.124Z,1.95
2023-12-01T01:30:14.053Z,1.94
2023-12-01T01:32:45.900Z,1.94
2023-12-01T01:35:17.912Z,1.93
2023-12-01T01:37:49.668Z,1.89
2023-12-01T01:40:21.492Z,1.90
2023-12-01T01:42:53.287Z,1.99
2023-12-01T01:45:25.108Z,2.05
2023-12-01T01:47:57.664Z,2.10
2023-12-01T01:50:29.548Z,2.17
2023-12-01T01:53:04.045Z,2.21
2023-12-01T01:55:35.921Z,2.20
2023-12-01T01:58:07.863Z,2.22
2023-12-01T02:00:39.785Z,2.25
2023-12-01T02:03:11.638Z,2.27
2023-12-01T02:05:43.465Z,2.27
2023-12-01T02:08:26.896Z,2.29
2023-12-01T02:10:59.692Z,2.28
2023-12-01T02:13:31.525Z,2.26
2023-12-01T02:16:03.625Z,2.25
2023-12-01T02:18:35.801Z,2.24
2023-12-01T02:21:08.566Z,2.19
2023-12-01T02:23:40.352Z,2.18
2023-12-01T02:26:12.079Z,2.15
2023-12-01T02:28:43.826Z,2.13
2023-12-01T02:31:15.697Z,2.10
2023-12-01T02:33:47.577Z,2.07
2023-12-01T02:36:20.765Z,2.03
2023-12-01T02:38:52.821Z,2.01
2023-12-01T02:41:24.590Z,1.98
2023-12-01T02:43:56.411Z,1.95
2023-12-01T02:46:28.367Z,1.91
2023-12-01T02:49:00.225Z,1.89
2023-12-01T02:51:32.079Z,1.86
2023-12-01T02:54:03.875Z,1.84
2023-12-01T02:56:35.622Z,1.82
2023-12-01T02:59:07.415Z,1.91
2023-12-01T03:01:39.370Z,1.95
2023-12-01T03:04:11.239Z,1.97
2023-12-01T03:06:43.224Z,2.01
2023-12-01T03:09:18.530Z,2.05
2023-12-01T03:11:51.120Z,2.04
2023-12-01T03:14:23.976Z,2.04
2023-12-01T03:16:57.657Z,2.06
2023-12-01T03:19:29.564Z,2.07
2023-12-01T03:22:01.319Z,2.07
2023-12-01T03:24:33.163Z,2.07
2023-12-01T03:27:05.237Z,2.07
2023-12-01T03:29:37.147Z,2.06
2023-12-01T03:32:09.160Z,2.03
2023-12-01T03:34:41.159Z,1.98
2023-12-01T03:37:12.979Z,1.94
2023-12-01T03:39:44.853Z,1.91
2023-12-01T03:42:16.716Z,1.86
2023-12-01T03:44:48.437Z,1.81
2023-12-01T03:47:20.182Z,1.76
2023-12-01T03:49:51.902Z,1.72
2023-12-01T03:52:23.703Z,1.68
2023-12-01T03:54:55.508Z,1.63
2023-12-01T03:57:28.587Z,1.57
2023-12-01T04:00:00.400Z,1.53
2023-12-01T04:02:32.468Z,1.52
2023-12-01T04:05:05.389Z,1.48
2023-12-01T04:07:37.785Z,1.46
2023-12-01T04:10:11.919Z,1.45
2023-12-01T04:12:46.039Z,1.54
2023-12-01T04:15:19.184Z,1.56
2023-12-01T04:17:51.718Z,1.57
2023-12-01T04:20:25.350Z,1.61
2023-12-01T04:23:00.945Z,1.64
2023-12-01T04:25:33.121Z,1.65
2023-12-01T04:28:06.206Z,1.68
2023-12-01T04:30:38.047Z,1.69
2023-12-01T04:33:10.197Z,1.69
2023-12-01T04:35:42.517Z,1.70
2023-12-01T04:38:14.351Z,1.72
2023-12-01T04:40:46.162Z,1.74
2023-12-01T04:43:19.034Z,1.75
2023-12-01T04:45:50.941Z,1.73
2023-12-01T04:48:22.859Z,1.69
2023-12-01T04:50:54.905Z,1.64
2023-12-01T04:53:27.324Z,1.60
2023-12-01T04:55:59.609Z,1.57
2023-12-01T04:58:31.416Z,1.55
2023-12-01T05:01:03.255Z,1.54
2023-12-01T05:03:35.296Z,1.53
2023-12-01T05:06:07.878Z,1.52
2023-12-01T05:08:39.594Z,1.45
2023-12-01T05:11:11.532Z,1.44
2023-12-01T05:13:43.505Z,1.45
2023-12-01T05:16:15.744Z,1.42
2023-12-01T05:18:47.934Z,1.40
2023-12-01T05:21:20.800Z,1.40
2023-12-01T05:23:52.646Z,1.49
2023-12-01T05:26:24.362Z,1.53
2023-12-01T05:28:56.557Z,1.57
2023-12-01T05:31:28.472Z,1.61
2023-12-01T05:34:05.357Z,1.65
2023-12-01T05:36:38.929Z,1.64
2023-12-01T05:39:14.260Z,1.63
2023-12-01T05:41:46.289Z,1.61
2023-12-01T05:44:18.249Z,1.64
2023-12-01T05:46:50.204Z,1.63
2023-12-01T05:49:22.038Z,1.61
2023-12-01T05:51:53.785Z,1.62
2023-12-01T05:54:25.656Z,1.62
2023-12-01T05:56:57.496Z,1.62
2023-12-01T05:59:29.238Z,1.61
2023-12-01T06:02:06.199Z,1.59
2023-12-01T06:04:38.611Z,1.53
2023-12-01T06:07:10.497Z,1.50
2023-12-01T06:09:42.549Z,1.49
2023-12-01T06:12:14.951Z,1.47
2023-12-01T06:14:46.694Z,1.45
2023-12-01T06:17:18.432Z,1.42
2023-12-01T06:19:50.169Z,1.41
2023-12-01T06:22:22.469Z,1.38
2023-12-01T06:24:54.252Z,1.34
2023-12-01T06:27:26.051Z,1.30
2023-12-01T06:29:57.782Z,1.29
2023-12-01T06:32:29.752Z,1.38
2023-12-01T06:35:01.571Z,1.42
2023-12-01T06:37:33.423Z,1.45
2023-12-01T06:40:12.688Z,1.49
2023-12-01T06:42:46.774Z,1.53
2023-12-01T06:45:19.686Z,1.52
2023-12-01T06:47:52.390Z,1.56
2023-12-01T06:50:24.678Z,1.63
2023-12-01T06:53:00.447Z,1.66
2023-12-01T06:55:32.575Z,1.69
2023-12-01T06:58:04.461Z,1.71
2023-12-01T07:00:38.176Z,1.73
2023-12-01T07:03:11.138Z,1.73
2023-12-01T07:05:45.241Z,1.72
2023-12-01T07:08:17.260Z,1.70
2023-12-01T07:10:49.215Z,1.70
2023-12-01T07:13:21.122Z,1.69
2023-12-01T07:15:53.056Z,1.69
2023-12-01T07:18:25.480Z,1.70
2023-12-01T07:20:57.348Z,1.72
2023-12-01T07:23:30.048Z,1.73
2023-12-01T07:26:01.878Z,1.73
2023-12-01T07:28:33.633Z,1.74
2023-12-01T07:31:05.716Z,1.74
2023-12-01T07:33:38.165Z,1.73
2023-12-01T07:36:13.487Z,1.73
2023-12-01T07:38:47.145Z,1.75
2023-12-01T07:41:18.912Z,1.79
2023-12-01T07:43:53.303Z,1.90
2023-12-01T07:46:25.192Z,1.96
2023-12-01T07:49:08.195Z,1.99
2023-12-01T07:51:41.716Z,2.01
2023-12-01T07:54:13.751Z,2.07
2023-12-01T07:56:45.817Z,2.13
2023-12-01T07:59:17.618Z,2.19
2023-12-01T08:01:49.588Z,2.23
2023-12-01T08:04:22.054Z,2.27
2023-12-01T08:06:53.909Z,2.33
2023-12-01T08:09:25.771Z,2.36
2023-12-01T08:11:57.559Z,2.36
2023-12-01T08:14:29.337Z,2.38
2023-12-01T08:17:01.206Z,2.42
2023-12-01T08:19:34.920Z,2.45
2023-12-01T08:22:07.536Z,2.48
2023-12-01T08:24:42.078Z,2.53
2023-12-01T08:27:14.253Z,2.55
2023-12-01T08:29:46.093Z,2.56
2023-12-01T08:32:18.123Z,2.59
2023-12-01T08:34:51.912Z,2.63
2023-12-01T08:37:23.810Z,2.69
2023-12-01T08:39:55.697Z,2.73
2023-12-01T08:42:29.911Z,2.77
2023-12-01T08:45:01.734Z,2.82
2023-12-01T08:47:33.620Z,2.86
2023-12-01T08:50:09.074Z,2.88
2023-12-01T08:52:42.195Z,2.87
2023-12-01T08:55:14.418Z,2.90
2023-12-01T08:57:46.221Z,2.94
2023-12-01T09:00:23.353Z,2.97
2023-12-01T09:02:58.420Z,3.04
2023-12-01T09:05:30.527Z,3.10
2023-12-01T09:08:05.681Z,3.16
2023-12-01T09:10:37.732Z,3.22
2023-12-01T09:13:09.721Z,3.29
2023-12-01T09:15:42.207Z,3.35
2023-12-01T09:18:14.378Z,3.41
2023-12-01T09:20:46.506Z,3.45
2023-12-01T09:23:18.595Z,3.50
2023-12-01T09:25:50.625Z,3.55
2023-12-01T09:28:22.655Z,3.59
2023-12-01T09:30:55.636Z,3.63
2023-12-01T09:33:27.748Z,3.66
2023-12-01T09:36:00.540Z,3.70
2023-12-01T09:38:32.784Z,3.73
2023-12-01T09:41:04.729Z,3.74
2023-12-01T09:43:36.644Z,3.74
2023-12-01T09:46:13.062Z,3.78
2023-12-01T09:48:46.607Z,3.81
2023-12-01T09:51:18.486Z,3.85
2023-12-01T09:53:50.419Z,3.87
2023-12-01T09:56:22.580Z,3.90
2023-12-01T09:58:54.767Z,3.92
2023-12-01T10:01:26.776Z,3.91
2023-12-01T10:03:58.822Z,3.90
2023-12-01T10:06:30.850Z,3.88
2023-12-01T10:09:04.131Z,3.85
2023-12-01T10:11:36.404Z,3.83
2023-12-01T10:14:09.140Z,3.83
2023-12-01T10:16:41.596Z,3.87
2023-12-01T10:19:16.330Z,3.91
2023-12-01T10:21:51.013Z,3.96
2023-12-01T10:24:24.817Z,4.01
2023-12-01T10:27:03.076Z,4.05
2023-12-01T10:29:35.889Z,4.07
2023-12-01T10:32:12.550Z,4.08
2023-12-01T10:34:53.452Z,4.10
2023-12-01T10:37:26.097Z,4.14
2023-12-01T10:39:59.470Z,4.16
2023-12-01T10:42:32.122Z,4.17
2023-12-01T10:45:05.731Z,4.16
2023-12-01T10:47:36.782Z,4.16
2023-12-01T10:50:10.176Z,4.16
2023-12-01T10:52:46.428Z,4.17
2023-12-01T10:55:18.228Z,4.17
2023-12-01T10:57:51.435Z,4.19
2023-12-01T11:00:32.165Z,4.23
2023-12-01T11:03:05.466Z,4.23
2023-12-01T11:05:38.990Z,4.25
2023-12-01T11:08:25.619Z,4.28
2023-12-01T11:11:08.870Z,4.32
2023-12-01T11:13:53.013Z,4.34
2023-12-01T11:16:24.914Z,4.37
2023-12-01T11:18:58.504Z,4.40
2023-12-01T11:21:28.884Z,4.42
2023-12-01T11:24:27.161Z,4.41
2023-12-01T11:27:05.414Z,4.41
2023-12-01T11:29:38.780Z,4.41
2023-12-01T11:32:10.821Z,4.43
2023-12-01T11:35:10.628Z,4.42
2023-12-01T11:38:04.790Z,4.44
2023-12-01T11:40:41.932Z,4.45
2023-12-01T11:43:17.559Z,4.43
2023-12-01T11:45:54.243Z,4.45
2023-12-01T11:48:26.290Z,4.46
2023-12-01T11:50:58.249Z,4.50
2023-12-01T11:53:33.263Z,4.52
2023-12-01T11:56:06.942Z,4.54
2023-12-01T11:58:38.802Z,4.58
2023-12-01T12:01:10.757Z,4.59
2023-12-01T12:03:42.852Z,4.64
2023-12-01T12:06:16.426Z,4.69
2023-12-01T12:08:46.750Z,4.74
2023-12-01T12:11:19.731Z,4.75
2023-12-01T12:13:59.157Z,4.77
2023-12-01T12:16:31.388Z,4.80
2023-12-01T12:19:03.659Z,4.82
2023-12-01T12:21:36.721Z,4.83
2023-12-01T12:24:09.662Z,4.85
2023-12-01T12:26:41.644Z,4.87
2023-12-01T12:29:13.936Z,4.90
2023-12-01T12:31:51.370Z,4.93
2023-12-01T12:34:25.587Z,4.95
2023-12-01T12:36:57.850Z,4.96
2023-12-01T12:39:31.741Z,4.94
2023-12-01T12:42:03.769Z,4.93
2023-12-01T12:44:38.989Z,4.90
2023-12-01T12:47:13.336Z,4.88
2023-12-01T12:49:45.343Z,4.87
2023-12-01T12:52:17.143Z,4.85
2023-12-01T12:54:48.889Z,4.82
2023-12-01T12:57:20.692Z,4.79
2023-12-01T12:59:55.852Z,4.76
2023-12-01T13:02:27.832Z,4.73
2023-12-01T13:04:59.591Z,4.68
2023-12-01T13:07:31.339Z,4.61
2023-12-01T13:10:03.127Z,4.58
2023-12-01T13:12:35.012Z,4.51
2023-12-01T13:15:08.496Z,4.45
2023-12-01T13:17:40.432Z,4.40
2023-12-01T13:20:13.950Z,4.35
2023-12-01T13:22:45.834Z,4.32
2023-12-01T13:25:17.692Z,4.28
2023-12-01T13:27:50.815Z,4.24
2023-12-01T13:30:23.022Z,4.21
2023-12-01T13:32:55.490Z,4.14
2023-12-01T13:35:27.333Z,4.12
2023-12-01T13:37:59.209Z,4.19
2023-12-01T13:40:31.363Z,4.22
2023-12-01T13:43:03.814Z,4.25
2023-12-01T13:45:35.802Z,4.28
2023-12-01T13:48:08.561Z,4.29
2023-12-01T13:50:40.379Z,4.29
2023-12-01T13:53:12.202Z,4.32
2023-12-01T13:55:44.070Z,4.34
2023-12-01T13:58:16.808Z,4.34
2023-12-01T14:00:49.801Z,4.33
2023-12-01T14:03:27.545Z,4.29
2023-12-01T14:06:03.756Z,4.25
2023-12-01T14:08:35.674Z,4.17
2023-12-01T14:11:09.254Z,4.09
2023-12-01T14:13:41.126Z,4.01
2023-12-01T14:16:13.948Z,3.94
2023-12-01T14:18:47.002Z,3.90
2023-12-01T14:21:19.281Z,3.86
2023-12-01T14:23:51.065Z,3.83
2023-12-01T14:26:22.824Z,3.79
2023-12-01T14:28:54.623Z,3.74
2023-12-01T14:31:26.634Z,3.70
2023-12-01T14:33:59.016Z,3.67
2023-12-01T14:36:31.065Z,3.62
2023-12-01T14:39:02.932Z,3.59
2023-12-01T14:41:34.810Z,3.55
2023-12-01T14:44:07.423Z,3.51
2023-12-01T14:46:39.301Z,3.49
2023-12-01T14:49:11.199Z,3.46
2023-12-01T14:51:43.141Z,3.46
2023-12-01T14:54:15.041Z,3.52
2023-12-01T14:56:47.207Z,3.54
2023-12-01T14:59:19.267Z,3.56
2023-12-01T15:01:53.315Z,3.56
2023-12-01T15:04:25.286Z,3.53
2023-12-01T15:07:14.031Z,3.52
2023-12-01T15:09:46.066Z,3.53
2023-12-01T15:12:18.840Z,3.54
2023-12-01T15:14:50.803Z,3.54
2023-12-01T15:17:22.562Z,3.51
2023-12-01T15:19:54.409Z,3.47
2023-12-01T15:22:26.297Z,3.45
2023-12-01T15:24:58.111Z,3.38
2023-12-01T15:27:30.113Z,3.33
2023-12-01T15:30:02.019Z,3.28
2023-12-01T15:32:33.947Z,3.25
2023-12-01T15:35:06.339Z,3.21
2023-12-01T15:37:38.623Z,3.20
2023-12-01T15:40:14.285Z,3.16
2023-12-01T15:42:46.192Z,3.12
2023-12-01T15:45:18.712Z,3.09
2023-12-01T15:47:50.603Z,3.06
2023-12-01T15:50:22.424Z,3.05
2023-12-01T15:52:57.405Z,3.05
2023-12-01T15:55:29.527Z,3.11
2023-12-01T15:58:01.252Z,3.13
2023-12-01T16:00:33.851Z,3.14
2023-12-01T16:03:07.228Z,3.14
2023-12-01T16:05:39.643Z,3.12
2023-12-01T16:08:11.508Z,3.11
2023-12-01T16:10:43.795Z,3.12
2023-12-01T16:13:15.578Z,3.12
2023-12-01T16:15:47.437Z,3.12
2023-12-01T16:18:21.605Z,3.10
2023-12-01T16:20:53.756Z,3.08
2023-12-01T16:23:25.656Z,3.07
2023-12-01T16:25:57.412Z,3.05
2023-12-01T16:28:29.134Z,3.03
2023-12-01T16:31:00.921Z,2.98
2023-12-01T16:33:33.347Z,2.96
2023-12-01T16:36:30.049Z,2.94
2023-12-01T16:38:58.847Z,2.93
2023-12-01T16:41:30.745Z,2.92
2023-12-01T16:44:02.498Z,2.90
2023-12-01T16:46:34.348Z,2.88
2023-12-01T16:49:06.338Z,2.86
2023-12-01T16:51:38.262Z,2.93
2023-12-01T16:54:10.138Z,2.95
2023-12-01T16:56:42.096Z,2.97
2023-12-01T16:59:13.830Z,2.98
2023-12-01T17:01:46.769Z,2.95
2023-12-01T17:04:18.746Z,2.98
2023-12-01T17:06:50.574Z,2.99
2023-12-01T17:09:22.510Z,3.00
2023-12-01T17:11:54.342Z,2.97
2023-12-01T17:14:34.359Z,2.96
2023-12-01T17:17:11.474Z,2.95
2023-12-01T17:19:43.293Z,2.91
2023-12-01T17:22:15.132Z,2.88
2023-12-01T17:24:47.056Z,2.85
2023-12-01T17:27:18.968Z,2.82
2023-12-01T17:29:50.914Z,2.77
2023-12-01T17:32:22.701Z,2.75
2023-12-01T17:34:54.438Z,2.72
2023-12-01T17:37:28.357Z,2.70
2023-12-01T17:40:00.324Z,2.76
2023-12-01T17:42:34.073Z,2.78
2023-12-01T17:45:07.565Z,2.80
2023-12-01T17:47:39.357Z,2.83
2023-12-01T17:50:12.283Z,2.82
2023-12-01T17:52:44.157Z,2.81
2023-12-01T17:55:16.008Z,2.81
2023-12-01T17:57:48.944Z,2.82
2023-12-01T18:00:22.104Z,2.82
2023-12-01T18:02:53.973Z,2.80
2023-12-01T18:05:25.857Z,2.77
2023-12-01T18:07:57.677Z,2.73
2023-12-01T18:10:29.423Z,2.71
2023-12-01T18:13:01.308Z,2.68
2023-12-01T18:15:33.135Z,2.66
2023-12-01T18:18:04.996Z,2.60
2023-12-01T18:20:36.795Z,2.55
2023-12-01T18:23:08.554Z,2.52
2023-12-01T18:25:40.390Z,2.51
2023-12-01T18:28:12.196Z,2.57
2023-12-01T18:30:44.360Z,2.59
2023-12-01T18:33:16.628Z,2.56
2023-12-01T18:35:48.619Z,2.52
2023-12-01T18:38:20.480Z,2.52
2023-12-01T18:40:52.348Z,2.53
2023-12-01T18:43:24.162Z,2.53
2023-12-01T18:45:56.232Z,2.53
2023-12-01T18:48:28.195Z,2.50
2023-12-01T18:51:00.160Z,2.49
2023-12-01T18:53:32.086Z,2.46
2023-12-01T18:56:04.158Z,2.44
2023-12-01T18:58:37.318Z,2.42
2023-12-01T19:01:10.224Z,2.41
2023-12-01T19:03:42.312Z,2.38
2023-12-01T19:06:14.635Z,2.37
2023-12-01T19:08:46.527Z,2.44
2023-12-01T19:11:18.615Z,2.48
2023-12-01T19:13:50.460Z,2.50
2023-12-01T19:16:22.298Z,2.51
2023-12-01T19:18:54.148Z,2.51
2023-12-01T19:21:26.123Z,2.52
2023-12-01T19:23:58.550Z,2.54
2023-12-01T19:26:30.357Z,2.53
2023-12-01T19:29:02.127Z,2.54
2023-12-01T19:31:34.234Z,2.52
2023-12-01T19:34:06.146Z,2.47
2023-12-01T19:36:41.363Z,2.44
2023-12-01T19:39:13.176Z,2.41
2023-12-01T19:41:45.668Z,2.37
2023-12-01T19:44:18.083Z,2.30
2023-12-01T19:46:50.119Z,2.25
2023-12-01T19:49:22.128Z,2.22
2023-12-01T19:51:54.049Z,2.23
2023-12-01T19:54:25.982Z,2.32
2023-12-01T19:56:57.841Z,2.33
2023-12-01T19:59:29.710Z,2.35
2023-12-01T20:02:01.647Z,2.38
2023-12-01T20:04:33.397Z,2.37
2023-12-01T20:07:05.534Z,2.37
2023-12-01T20:09:37.334Z,2.37
2023-12-01T20:12:10.251Z,2.34
2023-12-01T20:14:42.068Z,2.29
2023-12-01T20:17:14.105Z,2.24
2023-12-01T20:19:46.064Z,2.24
2023-12-01T20:22:17.848Z,2.24
2023-12-01T20:24:50.115Z,2.23
2023-12-01T20:27:21.947Z,2.22
2023-12-01T20:29:55.322Z,2.18
2023-12-01T20:32:27.162Z,2.14
2023-12-01T20:34:59.690Z,2.14
2023-12-01T20:37:31.615Z,2.21
2023-12-01T20:40:03.686Z,2.20
2023-12-01T20:42:35.716Z,2.17
2023-12-01T20:45:09.525Z,2.13
2023-12-01T20:47:41.449Z,2.12
2023-12-01T20:50:13.373Z,2.12
2023-12-01T20:52:46.799Z,2.11
2023-12-01T20:55:22.005Z,2.10
2023-12-01T20:57:53.909Z,2.06
2023-12-01T21:00:28.736Z,2.02
2023-12-01T21:03:00.675Z,2.03
2023-12-01T21:05:32.712Z,2.01
2023-12-01T21:08:04.602Z,1.98
2023-12-01T21:10:36.408Z,1.98
2023-12-01T21:13:08.295Z,2.08
2023-12-01T21:15:40.126Z,2.10
2023-12-01T21:18:12.004Z,2.12
2023-12-01T21:20:44.230Z,2.15
2023-12-01T21:23:16.217Z,2.15
2023-12-01T21:25:48.067Z,2.17
2023-12-01T21:28:19.782Z,2.18
2023-12-01T21:30:51.621Z,2.18
2023-12-01T21:33:24.280Z,2.17
2023-12-01T21:35:56.449Z,2.15
2023-12-01T21:38:28.230Z,2.14
2023-12-01T21:41:00.026Z,2.12
2023-12-01T21:43:31.897Z,2.11
2023-12-01T21:46:03.640Z,2.08
2023-12-01T21:48:35.610Z,2.05
2023-12-01T21:51:09.016Z,2.03
2023-12-01T21:53:41.079Z,2.01
2023-12-01T21:56:13.757Z,1.98
2023-12-01T21:58:45.702Z,2.08
2023-12-01T22:01:17.604Z,2.10
2023-12-01T22:03:49.639Z,2.12
2023-12-01T22:06:21.465Z,2.16
2023-12-01T22:08:53.330Z,2.17
2023-12-01T22:11:25.543Z,2.17
2023-12-01T22:13:57.715Z,2.17
2023-12-01T22:16:31.817Z,2.14
2023-12-01T22:19:03.825Z,2.14
2023-12-01T22:21:37.629Z,2.14
2023-12-01T22:24:10.713Z,2.11
2023-12-01T22:26:42.552Z,2.08
2023-12-01T22:29:16.263Z,2.03
2023-12-01T22:31:47.995Z,2.01
2023-12-01T22:34:19.951Z,1.98
2023-12-01T22:36:51.711Z,1.95
2023-12-01T22:39:23.586Z,1.92
2023-12-01T22:41:55.339Z,1.93
2023-12-01T22:44:27.606Z,2.02
2023-12-01T22:47:02.055Z,2.04
2023-12-01T22:49:33.996Z,2.06
2023-12-01T22:52:06.195Z,2.07
2023-12-01T22:54:37.909Z,2.05
2023-12-01T22:57:09.741Z,2.05
2023-12-01T22:59:41.571Z,2.06
2023-12-01T23:02:13.420Z,2.06
2023-12-01T23:04:45.384Z,2.02
2023-12-01T23:07:17.196Z,2.02
2023-12-01T23:09:49.025Z,2.01
2023-12-01T23:12:20.812Z,2.01
2023-12-01T23:14:52.744Z,2.01
2023-12-01T23:17:24.494Z,1.97
2023-12-01T23:19:56.291Z,1.95
2023-12-01T23:22:28.202Z,1.94
2023-12-01T23:24:59.960Z,1.91
2023-12-01T23:27:35.590Z,1.97
2023-12-01T23:30:09.819Z,1.98
2023-12-01T23:32:41.658Z,1.99
2023-12-01T23:35:13.612Z,1.99
2023-12-01T23:37:45.394Z,1.94
2023-12-01T23:40:17.563Z,1.93
2023-12-01T23:42:49.418Z,1.92
2023-12-01T23:45:21.279Z,1.89
2023-12-01T23:47:53.274Z,1.86
2023-12-01T23:50:25.440Z,1.87
2023-12-01T23:52:57.335Z,1.86
2023-12-01T23:55:29.160Z,1.84
2023-12-01T23:58:01.004Z,1.82
